createdAt,value
2018-03-06T00:02:15.241Z,52.97
2018-03-06T00:04:42.979Z,51.13
2018-03-06T00:07:10.905Z,50.17
2018-03-06T00:09:38.595Z,54.50
2018-03-06T00:12:07.096Z,52.37
2018-03-06T00:14:34.795Z,52.30
2018-03-06T00:17:02.444Z,50.33
2018-03-06T00:19:30.152Z,52.27
2018-03-06T00:21:58.611Z,50.80
2018-03-06T00:24:26.276Z,52.70
2018-03-06T00:26:54.764Z,53.40
2018-03-06T00:29:23.262Z,55.60
2018-03-06T00:31:50.915Z,53.20
2018-03-06T00:34:19.404Z,54.23
2018-03-06T00:36:47.122Z,49.27
2018-03-06T00:39:14.768Z,54.60
2018-03-06T00:41:42.465Z,54.13
2018-03-06T00:44:10.146Z,52.90
2018-03-06T00:46:37.814Z,51.73
2018-03-06T00:49:06.149Z,51.30
2018-03-06T00:51:34.430Z,52.87
2018-03-06T00:54:03.295Z,50.70
2018-03-06T00:56:32.038Z,52.73
2018-03-06T00:58:59.712Z,52.03
2018-03-06T01:01:27.356Z,52.20
2018-03-06T01:03:55.049Z,51.00
2018-03-06T01:06:22.752Z,49.53
2018-03-06T01:08:50.397Z,53.73
2018-03-06T01:11:18.093Z,51.37
2018-03-06T01:13:46.544Z,49.40
2018-03-06T01:16:14.984Z,51.93
2018-03-06T01:18:42.663Z,50.20
2018-03-06T01:21:10.411Z,50.97
2018-03-06T01:23:38.076Z,50.03
2018-03-06T01:26:05.763Z,52.47
2018-03-06T01:28:33.527Z,51.93
2018-03-06T01:31:01.184Z,51.13
2018-03-06T01:33:28.873Z,50.53
2018-03-06T01:35:56.574Z,50.20
2018-03-06T01:38:24.361Z,54.00
2018-03-06T01:40:52.073Z,52.37
2018-03-06T01:43:20.525Z,55.33
2018-03-06T01:45:48.971Z,52.17
2018-03-06T01:48:16.787Z,53.80
2018-03-06T01:50:45.236Z,51.43
2018-03-06T01:53:12.902Z,51.70
2018-03-06T01:55:41.389Z,52.40
2018-03-06T01:58:09.915Z,52.93
2018-03-06T02:00:37.577Z,55.03
2018-03-06T02:03:05.266Z,51.33
2018-03-06T02:05:32.977Z,53.40
2018-03-06T02:08:00.669Z,52.70
2018-03-06T02:10:28.453Z,51.70
2018-03-06T02:12:56.153Z,53.07
2018-03-06T02:15:23.828Z,54.23
2018-03-06T02:17:51.524Z,53.80
2018-03-06T02:20:19.260Z,52.90
2018-03-06T02:22:46.919Z,49.97
2018-03-06T02:25:14.640Z,50.17
2018-03-06T02:27:43.185Z,55.30
2018-03-06T02:30:10.938Z,50.33
2018-03-06T02:32:38.643Z,50.20
2018-03-06T02:35:06.345Z,52.33
2018-03-06T02:37:34.008Z,51.07
2018-03-06T02:40:01.746Z,54.63
2018-03-06T02:42:30.188Z,52.60
2018-03-06T02:44:57.853Z,53.97
2018-03-06T02:47:25.567Z,49.50
2018-03-06T02:49:53.272Z,51.67
2018-03-06T02:52:20.936Z,52.23
2018-03-06T02:54:48.622Z,52.67
2018-03-06T02:57:16.321Z,55.30
2018-03-06T02:59:43.992Z,51.20
2018-03-06T03:02:11.727Z,54.70
2018-03-06T03:04:39.419Z,49.07
2018-03-06T03:07:07.136Z,54.43
2018-03-06T03:09:34.939Z,50.20
2018-03-06T03:12:02.635Z,57.47
2018-03-06T03:14:31.069Z,55.97
2018-03-06T03:16:58.748Z,57.27
2018-03-06T03:19:27.042Z,54.20
2018-03-06T03:21:55.032Z,53.70
2018-03-06T03:24:23.717Z,54.73
2018-03-06T03:26:52.955Z,55.70
2018-03-06T03:29:20.612Z,52.67
2018-03-06T03:31:48.291Z,52.70
2018-03-06T03:34:15.995Z,53.73
2018-03-06T03:36:43.660Z,53.60
2018-03-06T03:39:12.116Z,52.67
2018-03-06T03:41:39.817Z,51.27
2018-03-06T03:44:07.467Z,52.23
2018-03-06T03:46:35.186Z,54.70
2018-03-06T03:49:03.671Z,55.17
2018-03-06T03:51:31.357Z,52.90
2018-03-06T03:53:59.848Z,53.20
2018-03-06T03:56:27.548Z,53.30
2018-03-06T03:58:55.245Z,53.23
2018-03-06T04:01:23.713Z,51.77
2018-03-06T04:03:51.388Z,53.90
2018-03-06T04:06:19.828Z,54.77
2018-03-06T04:08:47.563Z,52.07
2018-03-06T04:11:15.252Z,53.30
2018-03-06T04:13:42.909Z,51.83
2018-03-06T04:16:10.612Z,52.80
2018-03-06T04:18:38.296Z,50.90
2018-03-06T04:21:05.976Z,52.90
2018-03-06T04:23:33.684Z,52.87
2018-03-06T04:26:02.184Z,53.23
2018-03-06T04:28:30.720Z,51.37
2018-03-06T04:30:58.425Z,53.70
2018-03-06T04:33:26.894Z,53.40
2018-03-06T04:35:55.340Z,52.23
2018-03-06T04:38:23.092Z,54.07
2018-03-06T04:40:50.787Z,54.40
2018-03-06T04:43:18.423Z,55.50
2018-03-06T04:45:46.116Z,52.73
2018-03-06T04:48:13.806Z,51.87
2018-03-06T04:50:41.477Z,56.03
2018-03-06T04:53:09.186Z,53.50
2018-03-06T04:55:36.955Z,54.13
2018-03-06T04:58:04.625Z,49.80
2018-03-06T05:00:33.158Z,53.47
2018-03-06T05:03:00.960Z,53.90
2018-03-06T05:05:28.626Z,57.00
2018-03-06T05:07:57.118Z,53.90
2018-03-06T05:10:25.608Z,50.63
2018-03-06T05:12:54.073Z,53.10
2018-03-06T05:15:21.825Z,56.77
2018-03-06T05:17:49.524Z,52.53
2018-03-06T05:20:18.085Z,54.77
2018-03-06T05:22:45.840Z,56.17
2018-03-06T05:25:14.335Z,56.40
2018-03-06T05:27:41.992Z,55.17
2018-03-06T05:30:09.704Z,53.83
2018-03-06T05:32:37.391Z,53.83
2018-03-06T05:35:05.999Z,52.00
2018-03-06T05:37:33.720Z,54.40
2018-03-06T05:40:01.408Z,53.80
2018-03-06T05:42:29.920Z,52.97
2018-03-06T05:44:57.606Z,51.57
2018-03-06T05:47:25.312Z,55.97
2018-03-06T05:49:52.998Z,54.67
2018-03-06T05:52:20.708Z,54.10
2018-03-06T05:54:48.383Z,54.90
2018-03-06T05:57:16.813Z,51.47
2018-03-06T05:59:44.490Z,52.17
2018-03-06T06:02:12.176Z,54.73
2018-03-06T06:04:40.672Z,54.07
2018-03-06T06:07:08.432Z,53.27
2018-03-06T06:09:36.887Z,55.30
2018-03-06T06:12:05.376Z,53.80
2018-03-06T06:14:33.161Z,53.40
2018-03-06T06:17:00.874Z,57.03
2018-03-06T06:19:28.519Z,56.70
2018-03-06T06:21:56.236Z,55.77
2018-03-06T06:24:23.952Z,56.37
2018-03-06T06:26:51.600Z,54.63
2018-03-06T06:29:20.068Z,53.17
2018-03-06T06:31:47.757Z,52.77
2018-03-06T06:34:15.501Z,53.00
2018-03-06T06:36:43.267Z,52.70
2018-03-06T06:39:11.036Z,56.33
2018-03-06T06:41:38.709Z,53.30
2018-03-06T06:44:06.412Z,59.53
2018-03-06T06:46:34.252Z,57.33
2018-03-06T06:49:01.942Z,58.03
2018-03-06T06:51:29.747Z,56.73
2018-03-06T06:53:57.461Z,55.07
2018-03-06T06:56:25.147Z,51.50
2018-03-06T06:58:53.606Z,55.13
2018-03-06T07:01:21.271Z,54.37
2018-03-06T07:03:49.693Z,57.40
2018-03-06T07:06:17.440Z,54.30
2018-03-06T07:08:45.152Z,60.37
2018-03-06T07:11:12.838Z,55.10
2018-03-06T07:13:41.314Z,56.93
2018-03-06T07:16:09.796Z,56.97
2018-03-06T07:18:38.233Z,54.27
2018-03-06T07:21:05.946Z,53.47
2018-03-06T07:23:34.389Z,53.13
2018-03-06T07:26:02.051Z,50.57
2018-03-06T07:28:29.756Z,54.70
2018-03-06T07:30:57.434Z,56.13
2018-03-06T07:33:25.097Z,58.47
2018-03-06T07:35:52.850Z,56.87
2018-03-06T07:38:20.589Z,54.60
2018-03-06T07:40:49.012Z,55.97
2018-03-06T07:43:16.730Z,57.40
2018-03-06T07:45:44.420Z,57.30
2018-03-06T07:48:12.056Z,59.87
2018-03-06T07:50:39.882Z,58.60
2018-03-06T07:53:07.631Z,54.50
2018-03-06T07:55:35.354Z,57.90
2018-03-06T07:58:03.892Z,60.10
2018-03-06T08:00:31.631Z,58.20
2018-03-06T08:02:59.263Z,54.67
2018-03-06T08:05:27.985Z,63.53
2018-03-06T08:07:55.740Z,55.53
2018-03-06T08:10:23.404Z,61.13
2018-03-06T08:12:51.089Z,63.00
2018-03-06T08:15:18.817Z,56.90
2018-03-06T08:17:46.490Z,60.43
2018-03-06T08:20:14.168Z,57.40
2018-03-06T08:22:41.887Z,57.00
2018-03-06T08:25:09.560Z,58.47
2018-03-06T08:27:37.285Z,59.07
2018-03-06T08:30:05.788Z,57.97
2018-03-06T08:32:33.458Z,58.57
2018-03-06T08:35:01.151Z,58.67
2018-03-06T08:37:29.706Z,58.00
2018-03-06T08:39:57.354Z,57.50
2018-03-06T08:42:25.837Z,56.03
2018-03-06T08:44:53.588Z,58.37
2018-03-06T08:47:21.285Z,58.40
2018-03-06T08:49:48.988Z,60.00
2018-03-06T08:52:16.706Z,55.27
2018-03-06T08:54:44.375Z,53.90
2018-03-06T08:57:12.098Z,57.40
2018-03-06T08:59:39.751Z,56.70
2018-03-06T09:02:08.455Z,55.37
2018-03-06T09:04:36.204Z,60.90
2018-03-06T09:07:04.264Z,62.43
2018-03-06T09:09:31.955Z,63.37
2018-03-06T09:11:59.674Z,64.13
2018-03-06T09:14:27.350Z,61.47
2018-03-06T09:16:55.004Z,61.10
2018-03-06T09:19:22.765Z,60.30
2018-03-06T09:21:50.440Z,60.23
2018-03-06T09:24:18.174Z,63.77
2018-03-06T09:26:45.980Z,63.50
2018-03-06T09:29:13.635Z,64.43
2018-03-06T09:31:42.018Z,63.87
2018-03-06T09:34:09.730Z,63.00
2018-03-06T09:36:37.400Z,67.10
2018-03-06T09:39:05.203Z,61.17
2018-03-06T09:41:32.902Z,58.87
2018-03-06T09:44:01.533Z,63.60
2018-03-06T09:46:29.197Z,61.63
2018-03-06T09:48:56.911Z,62.67
2018-03-06T09:51:25.371Z,64.47
2018-03-06T09:53:53.042Z,63.37
2018-03-06T09:56:21.520Z,62.53
2018-03-06T09:58:49.280Z,59.07
2018-03-06T10:01:16.968Z,60.30
2018-03-06T10:03:44.642Z,63.33
2018-03-06T10:06:12.348Z,60.80
2018-03-06T10:08:40.058Z,58.90
2018-03-06T10:11:07.786Z,56.30
2018-03-06T10:13:35.459Z,61.80
2018-03-06T10:16:03.928Z,61.20
2018-03-06T10:18:31.620Z,59.93
2018-03-06T10:20:59.292Z,60.63
2018-03-06T10:23:26.935Z,58.97
2018-03-06T10:25:54.677Z,58.47
2018-03-06T10:28:23.127Z,60.77
2018-03-06T10:30:50.920Z,60.60
2018-03-06T10:33:19.390Z,57.80
2018-03-06T10:35:47.070Z,62.40
2018-03-06T10:38:16.341Z,63.00
2018-03-06T10:40:44.055Z,66.13
2018-03-06T10:43:11.801Z,65.27
2018-03-06T10:45:39.486Z,65.57
2018-03-06T10:48:07.242Z,66.67
2018-03-06T10:50:34.908Z,64.70
2018-03-06T10:53:02.537Z,67.10
2018-03-06T10:55:32.084Z,64.10
2018-03-06T10:57:59.756Z,65.83
2018-03-06T11:00:33.137Z,66.37
2018-03-06T11:03:00.879Z,64.60
2018-03-06T11:05:28.572Z,67.70
2018-03-06T11:07:56.400Z,66.50
2018-03-06T11:10:24.164Z,63.17
2018-03-06T11:12:51.867Z,66.83
2018-03-06T11:15:19.720Z,67.80
2018-03-06T11:17:47.412Z,63.40
2018-03-06T11:20:15.152Z,66.30
2018-03-06T11:22:42.830Z,66.50
2018-03-06T11:25:10.726Z,63.77
2018-03-06T11:27:38.407Z,63.00
2018-03-06T11:30:06.143Z,67.40
2018-03-06T11:32:33.884Z,70.27
2018-03-06T11:35:01.580Z,68.13
2018-03-06T11:37:29.333Z,67.80
2018-03-06T11:39:57.011Z,63.17
2018-03-06T11:42:24.732Z,70.23
2018-03-06T11:44:53.208Z,64.90
2018-03-06T11:47:21.735Z,67.90
2018-03-06T11:49:49.445Z,66.03
2018-03-06T11:52:17.163Z,65.93
2018-03-06T11:54:44.848Z,70.50
2018-03-06T11:57:12.535Z,71.40
2018-03-06T11:59:40.200Z,68.77
2018-03-06T12:02:08.879Z,67.33
2018-03-06T12:04:36.605Z,72.33
2018-03-06T12:07:04.348Z,66.70
2018-03-06T12:09:32.079Z,66.37
2018-03-06T12:12:00.515Z,70.07
2018-03-06T12:14:28.224Z,73.13
2018-03-06T12:16:55.937Z,69.17
2018-03-06T12:19:24.393Z,72.53
2018-03-06T12:21:52.096Z,73.47
2018-03-06T12:24:19.807Z,77.47
2018-03-06T12:26:47.493Z,75.03
2018-03-06T12:29:15.177Z,76.63
2018-03-06T12:31:42.988Z,72.17
2018-03-06T12:34:10.657Z,78.50
2018-03-06T12:36:38.430Z,81.07
2018-03-06T12:39:06.208Z,71.90
2018-03-06T12:41:33.872Z,77.97
2018-03-06T12:44:01.636Z,77.87
2018-03-06T12:46:29.390Z,77.00
2018-03-06T12:48:57.055Z,76.17
2018-03-06T12:51:24.743Z,75.43
2018-03-06T12:53:53.281Z,74.43
2018-03-06T12:56:20.947Z,74.50
2018-03-06T12:58:48.671Z,76.53
2018-03-06T13:01:16.412Z,73.67
2018-03-06T13:03:44.866Z,73.03
2018-03-06T13:06:12.542Z,72.17
2018-03-06T13:08:40.288Z,72.30
2018-03-06T13:11:07.978Z,71.67
2018-03-06T13:13:36.422Z,74.30
2018-03-06T13:16:04.162Z,75.53
2018-03-06T13:18:31.804Z,67.50
2018-03-06T13:20:59.459Z,75.90
2018-03-06T13:23:27.239Z,71.43
2018-03-06T13:25:54.959Z,69.40
2018-03-06T13:28:23.490Z,71.13
2018-03-06T13:30:51.205Z,70.70
2018-03-06T13:33:19.752Z,66.80
2018-03-06T13:35:47.420Z,70.10
2018-03-06T13:38:15.137Z,70.33
2018-03-06T13:40:42.808Z,68.90
2018-03-06T13:43:10.485Z,72.20
2018-03-06T13:45:38.180Z,71.43
2018-03-06T13:48:05.935Z,71.53
2018-03-06T13:50:33.600Z,70.37
2018-03-06T13:53:01.318Z,69.87
2018-03-06T13:55:28.948Z,68.03
2018-03-06T13:57:56.655Z,69.90
2018-03-06T14:00:25.339Z,73.50
2018-03-06T14:02:53.025Z,72.63
2018-03-06T14:05:20.735Z,65.47
2018-03-06T14:07:48.432Z,72.37
2018-03-06T14:10:16.181Z,70.53
2018-03-06T14:12:43.934Z,70.40
2018-03-06T14:15:12.090Z,68.27
2018-03-06T14:17:39.756Z,73.53
2018-03-06T14:20:07.491Z,65.07
2018-03-06T14:22:35.193Z,66.27
2018-03-06T14:25:02.832Z,69.27
2018-03-06T14:27:31.379Z,68.77
2018-03-06T14:29:59.843Z,68.97
2018-03-06T14:32:27.575Z,67.23
2018-03-06T14:34:55.322Z,66.13
2018-03-06T14:37:23.080Z,70.93
2018-03-06T14:39:50.743Z,64.87
2018-03-06T14:42:18.438Z,65.37
2018-03-06T14:44:46.920Z,64.90
2018-03-06T14:47:14.677Z,67.00
2018-03-06T14:49:42.365Z,66.70
2018-03-06T14:52:10.836Z,66.27
2018-03-06T14:54:38.495Z,64.63
2018-03-06T14:57:06.253Z,67.63
2018-03-06T14:59:33.929Z,68.30
2018-03-06T15:02:02.554Z,68.83
2018-03-06T15:04:30.240Z,69.70
2018-03-06T15:06:57.991Z,69.10
2018-03-06T15:09:25.688Z,70.97
2018-03-06T15:11:54.161Z,68.80
2018-03-06T15:14:21.864Z,69.30
2018-03-06T15:16:49.529Z,68.77
2018-03-06T15:19:17.289Z,69.80
2018-03-06T15:21:44.961Z,68.87
2018-03-06T15:24:12.635Z,65.60
2018-03-06T15:26:40.357Z,72.70
2018-03-06T15:29:08.100Z,68.50
2018-03-06T15:31:36.502Z,70.57
2018-03-06T15:34:05.204Z,74.27
2018-03-06T15:36:32.903Z,73.13
2018-03-06T15:39:00.571Z,70.10
2018-03-06T15:41:29.040Z,68.40
2018-03-06T15:43:57.528Z,70.73
2018-03-06T15:46:26.016Z,70.93
2018-03-06T15:48:54.544Z,67.47
2018-03-06T15:51:22.240Z,70.63
2018-03-06T15:53:50.016Z,69.27
2018-03-06T15:56:17.700Z,74.40
2018-03-06T15:58:46.223Z,72.57
2018-03-06T16:01:13.903Z,69.57
2018-03-06T16:03:41.701Z,74.20
2018-03-06T16:06:10.172Z,71.70
2018-03-06T16:08:38.625Z,71.97
2018-03-06T16:11:06.404Z,72.20
2018-03-06T16:13:34.143Z,71.90
2018-03-06T16:16:01.811Z,70.17
2018-03-06T16:18:29.681Z,75.97
2018-03-06T16:20:57.441Z,72.87
2018-03-06T16:23:25.155Z,73.00
2018-03-06T16:25:52.895Z,72.87
2018-03-06T16:28:21.373Z,76.80
2018-03-06T16:30:49.781Z,71.77
2018-03-06T16:33:17.545Z,73.87
2018-03-06T16:35:45.261Z,71.37
2018-03-06T16:38:12.912Z,72.63
2018-03-06T16:40:40.619Z,73.80
2018-03-06T16:43:08.365Z,74.17
2018-03-06T16:45:36.041Z,73.50
2018-03-06T16:48:03.788Z,70.77
2018-03-06T16:50:32.236Z,73.27
2018-03-06T16:52:59.982Z,78.27
2018-03-06T16:55:27.683Z,74.07
2018-03-06T16:57:56.139Z,74.70
2018-03-06T17:00:23.860Z,74.80
2018-03-06T17:02:51.538Z,70.97
2018-03-06T17:05:19.232Z,73.27
2018-03-06T17:07:46.890Z,73.90
2018-03-06T17:10:14.617Z,71.67
2018-03-06T17:12:42.320Z,70.53
2018-03-06T17:15:10.744Z,69.40
2018-03-06T17:17:38.408Z,70.30
2018-03-06T17:20:06.132Z,72.50
2018-03-06T17:22:34.586Z,72.50
2018-03-06T17:25:02.288Z,75.43
2018-03-06T17:27:30.018Z,70.80
2018-03-06T17:29:58.316Z,67.70
2018-03-06T17:32:25.999Z,72.40
2018-03-06T17:34:53.729Z,74.80
2018-03-06T17:37:22.247Z,73.17
2018-03-06T17:39:49.990Z,74.73
2018-03-06T17:42:18.485Z,77.60
2018-03-06T17:44:46.164Z,73.10
2018-03-06T17:47:13.839Z,76.30
2018-03-06T17:49:41.612Z,72.30
2018-03-06T17:52:09.505Z,70.27
2018-03-06T17:54:37.191Z,70.93
2018-03-06T17:57:05.693Z,73.93
2018-03-06T17:59:33.383Z,74.97
2018-03-06T18:02:01.113Z,73.00
2018-03-06T18:04:29.674Z,72.43
2018-03-06T18:06:57.389Z,73.83
2018-03-06T18:09:25.124Z,68.57
2018-03-06T18:11:52.860Z,72.20
2018-03-06T18:14:20.541Z,71.27
2018-03-06T18:16:48.238Z,76.33
2018-03-06T18:19:15.965Z,71.43
2018-03-06T18:21:43.680Z,77.90
2018-03-06T18:24:12.168Z,75.03
2018-03-06T18:26:39.886Z,76.70
2018-03-06T18:29:07.582Z,67.33
2018-03-06T18:31:36.045Z,74.87
2018-03-06T18:34:04.550Z,72.23
2018-03-06T18:36:32.248Z,71.47
2018-03-06T18:38:59.990Z,67.43
2018-03-06T18:41:27.735Z,70.70
2018-03-06T18:43:55.384Z,66.73
2018-03-06T18:46:23.865Z,72.20
2018-03-06T18:48:52.333Z,67.90
2018-03-06T18:51:20.778Z,68.93
2018-03-06T18:53:48.512Z,71.37
2018-03-06T18:56:16.252Z,70.47
2018-03-06T18:58:44.026Z,71.03
2018-03-06T19:04:29.344Z,71.77
2018-03-06T19:07:07.108Z,72.77
2018-03-06T19:09:34.918Z,68.30
2018-03-06T19:12:02.603Z,69.70
2018-03-06T19:14:31.137Z,72.47
2018-03-06T19:16:58.867Z,65.13
2018-03-06T19:19:27.526Z,73.10
2018-03-06T19:21:55.433Z,68.37
2018-03-06T19:24:23.173Z,73.63
2018-03-06T19:26:51.645Z,70.43
2018-03-06T19:32:40.421Z,67.43
2018-03-06T19:38:24.084Z,70.13
2018-03-06T19:40:55.645Z,60.80
2018-03-06T19:43:29.535Z,66.83
2018-03-06T19:45:57.222Z,65.93
2018-03-06T19:48:24.948Z,64.60
2018-03-06T19:50:53.452Z,69.13
2018-03-06T19:53:21.274Z,69.70
2018-03-06T19:55:49.199Z,66.37
2018-03-06T19:58:16.914Z,65.63
2018-03-06T20:00:44.652Z,74.43
2018-03-06T20:03:12.323Z,65.43
2018-03-06T20:05:39.987Z,65.07
2018-03-06T20:08:07.664Z,64.20
2018-03-06T20:10:36.116Z,63.07
2018-03-06T20:13:04.555Z,94.93
2018-03-06T20:15:32.254Z,98.17
2018-03-06T20:17:59.942Z,91.20
2018-03-06T20:20:28.404Z,91.73
2018-03-06T20:22:56.072Z,80.77
2018-03-06T20:25:29.564Z,81.47
2018-03-06T20:27:57.243Z,98.03
2018-03-06T20:30:30.545Z,66.53
2018-03-06T20:33:03.852Z,74.80
2018-03-06T20:35:31.996Z,88.30
2018-03-06T20:37:59.688Z,91.50
2018-03-06T20:40:33.207Z,68.17
2018-03-06T20:43:01.111Z,73.53
2018-03-06T20:48:28.631Z,66.20
2018-03-06T20:50:56.383Z,70.93
2018-03-06T20:53:29.645Z,78.83
2018-03-06T20:55:58.276Z,71.57
2018-03-06T20:58:26.768Z,73.67
2018-03-06T21:00:54.511Z,109.70
2018-03-06T21:03:22.228Z,71.60
2018-03-06T21:05:50.732Z,68.27
2018-03-06T21:08:18.412Z,65.20
2018-03-06T21:10:46.125Z,63.47
2018-03-06T21:13:13.803Z,60.37
2018-03-06T21:15:42.211Z,63.97
2018-03-06T21:18:09.891Z,60.20
2018-03-06T21:20:37.575Z,61.10
2018-03-06T21:23:05.223Z,61.03
2018-03-06T21:25:34.207Z,58.83
2018-03-06T21:28:01.913Z,56.50
2018-03-06T21:30:30.358Z,58.27
2018-03-06T21:32:58.044Z,57.37
2018-03-06T21:35:25.757Z,54.67
2018-03-06T21:37:53.566Z,52.00
2018-03-06T21:40:22.165Z,52.90
2018-03-06T21:42:50.865Z,49.50
2018-03-06T21:45:19.150Z,51.40
2018-03-06T21:47:47.177Z,49.60
2018-03-06T21:50:16.089Z,46.00
2018-03-06T21:52:44.043Z,47.20
2018-03-06T21:55:12.292Z,47.20
2018-03-06T21:57:40.423Z,46.80
2018-03-06T22:00:08.306Z,44.73
2018-03-06T22:02:36.236Z,45.93
2018-03-06T22:05:04.196Z,45.40
2018-03-06T22:07:32.723Z,43.50
2018-03-06T22:10:00.492Z,43.33
2018-03-06T22:12:28.304Z,44.40
2018-03-06T22:14:56.440Z,42.87
2018-03-06T22:17:24.355Z,42.57
2018-03-06T22:19:52.180Z,42.00
2018-03-06T22:22:21.358Z,41.67
2018-03-06T22:24:49.098Z,42.23
2018-03-06T22:27:17.070Z,39.60
2018-03-06T22:29:44.840Z,42.00
2018-03-06T22:32:12.724Z,41.13
2018-03-06T22:34:40.589Z,42.07
2018-03-06T22:37:08.547Z,37.90
2018-03-06T22:39:36.367Z,40.97
2018-03-06T22:42:04.276Z,39.67
2018-03-06T22:44:32.395Z,39.70
2018-03-06T22:47:00.260Z,38.90
2018-03-06T22:49:28.207Z,35.40
2018-03-06T22:51:56.753Z,38.17
2018-03-06T22:54:25.889Z,37.97
2018-03-06T22:56:53.587Z,35.23
2018-03-06T22:59:21.418Z,36.00
2018-03-06T23:01:49.065Z,35.73
2018-03-06T23:04:17.524Z,35.23
2018-03-06T23:06:45.150Z,36.97
2018-03-06T23:09:12.812Z,34.23
2018-03-06T23:11:40.476Z,34.70
2018-03-06T23:14:08.112Z,33.80
2018-03-06T23:16:35.776Z,33.13
2018-03-06T23:19:04.196Z,32.47
2018-03-06T23:21:31.837Z,32.50
2018-03-06T23:23:59.491Z,33.57
2018-03-06T23:26:27.152Z,32.90
2018-03-06T23:28:54.769Z,34.73
2018-03-06T23:31:23.200Z,33.37
2018-03-06T23:33:50.847Z,34.30
2018-03-06T23:36:18.748Z,32.60
2018-03-06T23:38:46.411Z,32.37
2018-03-06T23:41:14.308Z,31.30
2018-03-06T23:43:42.072Z,32.33
2018-03-06T23:46:09.908Z,28.80
2018-03-06T23:48:38.365Z,32.47
2018-03-06T23:51:05.975Z,31.47
2018-03-06T23:53:34.516Z,31.80
2018-03-06T23:56:02.166Z,31.27
2018-03-06T23:58:29.914Z,27.70
